sensor_id;sensor_type;location;lat;lon;timestamp;P1;durP1;ratioP1;P2;durP2;ratioP2
16099;SDS011;8154;50.830;12.082;2023-02-22T00:01:30;0.80;;;0.80;;
16099;SDS011;8154;50.830;12.082;2023-02-22T00:04:07;1.00;;;1.00;;
16099;SDS011;8154;50.830;12.082;2023-02-22T00:06:35;1.05;;;1.00;;
16099;SDS011;8154;50.830;12.082;2023-02-22T00:09:01;0.82;;;0.82;;
16099;SDS011;8154;50.830;12.082;2023-02-22T00:11:27;0.90;;;0.90;;
16099;SDS011;8154;50.830;12.082;2023-02-22T00:13:55;0.80;;;0.80;;
16099;SDS011;8154;50.830;12.082;2023-02-22T00:16:22;0.93;;;0.93;;
16099;SDS011;8154;50.830;12.082;2023-02-22T00:18:49;0.90;;;0.90;;
16099;SDS011;8154;50.830;12.082;2023-02-22T00:21:16;0.90;;;0.90;;
16099;SDS011;8154;50.830;12.082;2023-02-22T00:23:43;0.90;;;0.90;;
16099;SDS011;8154;50.830;12.082;2023-02-22T00:26:14;0.80;;;0.80;;
16099;SDS011;8154;50.830;12.082;2023-02-22T00:28:47;0.80;;;0.80;;
16099;SDS011;8154;50.830;12.082;2023-02-22T00:31:14;0.73;;;0.73;;
16099;SDS011;8154;50.830;12.082;2023-02-22T00:33:40;0.85;;;0.85;;
16099;SDS011;8154;50.830;12.082;2023-02-22T00:36:07;0.90;;;0.90;;
16099;SDS011;8154;50.830;12.082;2023-02-22T00:38:34;0.80;;;0.80;;
16099;SDS011;8154;50.830;12.082;2023-02-22T00:41:01;0.80;;;0.80;;
16099;SDS011;8154;50.830;12.082;2023-02-22T00:43:27;0.90;;;0.90;;
16099;SDS011;8154;50.830;12.082;2023-02-22T00:45:54;0.70;;;0.70;;
16099;SDS011;8154;50.830;12.082;2023-02-22T00:48:21;0.90;;;0.90;;
16099;SDS011;8154;50.830;12.082;2023-02-22T00:50:47;0.90;;;0.90;;
16099;SDS011;8154;50.830;12.082;2023-02-22T00:53:13;0.75;;;0.75;;
16099;SDS011;8154;50.830;12.082;2023-02-22T00:55:40;0.80;;;0.80;;
16099;SDS011;8154;50.830;12.082;2023-02-22T00:58:06;0.80;;;0.80;;
16099;SDS011;8154;50.830;12.082;2023-02-22T01:00:37;0.90;;;0.90;;
16099;SDS011;8154;50.830;12.082;2023-02-22T01:03:05;0.80;;;0.80;;
16099;SDS011;8154;50.830;12.082;2023-02-22T01:05:33;0.80;;;0.80;;
16099;SDS011;8154;50.830;12.082;2023-02-22T01:08:00;0.98;;;0.98;;
16099;SDS011;8154;50.830;12.082;2023-02-22T01:10:28;0.90;;;0.90;;
16099;SDS011;8154;50.830;12.082;2023-02-22T01:12:56;0.80;;;0.80;;
16099;SDS011;8154;50.830;12.082;2023-02-22T01:15:24;0.80;;;0.80;;
16099;SDS011;8154;50.830;12.082;2023-02-22T01:17:53;0.80;;;0.80;;
16099;SDS011;8154;50.830;12.082;2023-02-22T01:20:21;0.80;;;0.80;;
16099;SDS011;8154;50.830;12.082;2023-02-22T01:22:48;0.80;;;0.80;;
16099;SDS011;8154;50.830;12.082;2023-02-22T01:25:16;0.80;;;0.80;;
16099;SDS011;8154;50.830;12.082;2023-02-22T01:27:45;0.80;;;0.80;;
16099;SDS011;8154;50.830;12.082;2023-02-22T01:30:12;0.80;;;0.80;;
16099;SDS011;8154;50.830;12.082;2023-02-22T01:32:40;0.80;;;0.80;;
16099;SDS011;8154;50.830;12.082;2023-02-22T01:35:10;0.80;;;0.80;;
16099;SDS011;8154;50.830;12.082;2023-02-22T01:37:40;0.80;;;0.80;;
16099;SDS011;8154;50.830;12.082;2023-02-22T01:40:09;0.80;;;0.80;;
16099;SDS011;8154;50.830;12.082;2023-02-22T01:42:43;0.80;;;0.80;;
16099;SDS011;8154;50.830;12.082;2023-02-22T01:50:36;0.80;;;0.80;;
16099;SDS011;8154;50.830;12.082;2023-02-22T01:53:07;0.80;;;0.80;;
16099;SDS011;8154;50.830;12.082;2023-02-22T01:55:35;0.80;;;0.80;;
16099;SDS011;8154;50.830;12.082;2023-02-22T01:58:03;0.85;;;0.85;;
16099;SDS011;8154;50.830;12.082;2023-02-22T02:00:30;0.93;;;0.85;;
16099;SDS011;8154;50.830;12.082;2023-02-22T02:02:58;0.80;;;0.80;;
16099;SDS011;8154;50.830;12.082;2023-02-22T02:05:31;0.90;;;0.90;;
16099;SDS011;8154;50.830;12.082;2023-02-22T02:08:00;0.80;;;0.80;;
16099;SDS011;8154;50.830;12.082;2023-02-22T02:10:39;0.80;;;0.80;;
16099;SDS011;8154;50.830;12.082;2023-02-22T02:13:06;0.80;;;0.80;;
16099;SDS011;8154;50.830;12.082;2023-02-22T02:15:34;0.80;;;0.80;;
16099;SDS011;8154;50.830;12.082;2023-02-22T02:18:02;0.88;;;0.88;;
16099;SDS011;8154;50.830;12.082;2023-02-22T02:32:01;0.88;;;0.88;;
16099;SDS011;8154;50.830;12.082;2023-02-22T02:43:28;0.80;;;0.80;;
16099;SDS011;8154;50.830;12.082;2023-02-22T02:48:26;0.60;;;0.60;;
16099;SDS011;8154;50.830;12.082;2023-02-22T02:50:56;0.80;;;0.80;;
16099;SDS011;8154;50.830;12.082;2023-02-22T02:53:26;0.70;;;0.70;;
16099;SDS011;8154;50.830;12.082;2023-02-22T02:55:58;0.80;;;0.80;;
16099;SDS011;8154;50.830;12.082;2023-02-22T02:58:25;0.70;;;0.70;;
16099;SDS011;8154;50.830;12.082;2023-02-22T03:00:52;0.80;;;0.80;;
16099;SDS011;8154;50.830;12.082;2023-02-22T03:08:38;0.88;;;0.88;;
16099;SDS011;8154;50.830;12.082;2023-02-22T03:11:18;0.80;;;0.80;;
16099;SDS011;8154;50.830;12.082;2023-02-22T03:22:13;0.80;;;0.80;;
16099;SDS011;8154;50.830;12.082;2023-02-22T03:24:47;0.80;;;0.80;;
16099;SDS011;8154;50.830;12.082;2023-02-22T03:27:25;0.70;;;0.70;;
16099;SDS011;8154;50.830;12.082;2023-02-22T03:30:21;0.80;;;0.80;;
16099;SDS011;8154;50.830;12.082;2023-02-22T03:32:54;0.73;;;0.73;;
16099;SDS011;8154;50.830;12.082;2023-02-22T03:35:25;0.80;;;0.80;;
16099;SDS011;8154;50.830;12.082;2023-02-22T03:37:57;0.80;;;0.80;;
16099;SDS011;8154;50.830;12.082;2023-02-22T03:40:27;0.80;;;0.80;;
16099;SDS011;8154;50.830;12.082;2023-02-22T03:42:59;0.80;;;0.80;;
16099;SDS011;8154;50.830;12.082;2023-02-22T03:45:31;0.70;;;0.70;;
16099;SDS011;8154;50.830;12.082;2023-02-22T03:48:03;0.80;;;0.80;;
16099;SDS011;8154;50.830;12.082;2023-02-22T03:50:36;0.80;;;0.80;;
16099;SDS011;8154;50.830;12.082;2023-02-22T03:53:03;0.77;;;0.77;;
16099;SDS011;8154;50.830;12.082;2023-02-22T03:55:30;0.80;;;0.80;;
16099;SDS011;8154;50.830;12.082;2023-02-22T03:57:57;0.80;;;0.80;;
16099;SDS011;8154;50.830;12.082;2023-02-22T04:00:26;0.80;;;0.80;;
16099;SDS011;8154;50.830;12.082;2023-02-22T04:02:54;0.90;;;0.90;;
16099;SDS011;8154;50.830;12.082;2023-02-22T04:05:20;0.80;;;0.80;;
16099;SDS011;8154;50.830;12.082;2023-02-22T04:07:46;0.70;;;0.70;;
16099;SDS011;8154;50.830;12.082;2023-02-22T04:10:13;0.80;;;0.80;;
16099;SDS011;8154;50.830;12.082;2023-02-22T04:12:41;0.70;;;0.70;;
16099;SDS011;8154;50.830;12.082;2023-02-22T04:15:07;0.70;;;0.70;;
16099;SDS011;8154;50.830;12.082;2023-02-22T04:17:36;0.70;;;0.70;;
16099;SDS011;8154;50.830;12.082;2023-02-22T04:20:03;0.70;;;0.70;;
16099;SDS011;8154;50.830;12.082;2023-02-22T04:22:32;0.70;;;0.70;;
16099;SDS011;8154;50.830;12.082;2023-02-22T04:24:58;0.70;;;0.70;;
16099;SDS011;8154;50.830;12.082;2023-02-22T04:27:24;0.75;;;0.75;;
16099;SDS011;8154;50.830;12.082;2023-02-22T04:29:50;0.80;;;0.80;;
16099;SDS011;8154;50.830;12.082;2023-02-22T04:32:16;0.77;;;0.77;;
16099;SDS011;8154;50.830;12.082;2023-02-22T04:34:42;0.80;;;0.80;;
16099;SDS011;8154;50.830;12.082;2023-02-22T04:37:08;0.82;;;0.82;;
16099;SDS011;8154;50.830;12.082;2023-02-22T04:39:35;0.75;;;0.75;;
16099;SDS011;8154;50.830;12.082;2023-02-22T04:42:01;0.80;;;0.80;;
16099;SDS011;8154;50.830;12.082;2023-02-22T04:44:27;0.80;;;0.80;;
16099;SDS011;8154;50.830;12.082;2023-02-22T04:46:53;0.70;;;0.70;;
16099;SDS011;8154;50.830;12.082;2023-02-22T04:49:19;0.73;;;0.73;;
16099;SDS011;8154;50.830;12.082;2023-02-22T04:51:45;0.75;;;0.75;;
16099;SDS011;8154;50.830;12.082;2023-02-22T04:54:11;0.80;;;0.80;;
16099;SDS011;8154;50.830;12.082;2023-02-22T07:57:33;0.82;;;0.82;;
16099;SDS011;8154;50.830;12.082;2023-02-22T07:59:59;0.90;;;0.90;;
16099;SDS011;8154;50.830;12.082;2023-02-22T08:02:25;0.90;;;0.90;;
16099;SDS011;8154;50.830;12.082;2023-02-22T08:04:51;1.00;;;1.00;;
16099;SDS011;8154;50.830;12.082;2023-02-22T08:07:17;1.00;;;1.00;;
16099;SDS011;8154;50.830;12.082;2023-02-22T08:09:43;0.90;;;0.90;;
16099;SDS011;8154;50.830;12.082;2023-02-22T08:12:10;0.90;;;0.90;;
16099;SDS011;8154;50.830;12.082;2023-02-22T08:14:36;0.85;;;0.85;;
16099;SDS011;8154;50.830;12.082;2023-02-22T08:17:03;0.90;;;0.90;;
16099;SDS011;8154;50.830;12.082;2023-02-22T08:19:29;1.00;;;1.00;;
16099;SDS011;8154;50.830;12.082;2023-02-22T08:21:55;0.90;;;0.90;;
16099;SDS011;8154;50.830;12.082;2023-02-22T08:24:21;0.90;;;0.90;;
16099;SDS011;8154;50.830;12.082;2023-02-22T08:26:47;0.90;;;0.90;;
16099;SDS011;8154;50.830;12.082;2023-02-22T08:29:13;0.90;;;0.90;;
16099;SDS011;8154;50.830;12.082;2023-02-22T08:31:39;0.88;;;0.88;;
16099;SDS011;8154;50.830;12.082;2023-02-22T08:34:05;1.00;;;1.00;;
16099;SDS011;8154;50.830;12.082;2023-02-22T08:36:31;1.00;;;1.00;;
16099;SDS011;8154;50.830;12.082;2023-02-22T08:38:59;1.00;;;1.00;;
16099;SDS011;8154;50.830;12.082;2023-02-22T08:41:25;0.90;;;0.90;;
16099;SDS011;8154;50.830;12.082;2023-02-22T08:43:51;0.90;;;0.90;;
16099;SDS011;8154;50.830;12.082;2023-02-22T08:46:18;0.80;;;0.80;;
16099;SDS011;8154;50.830;12.082;2023-02-22T08:48:48;0.90;;;0.90;;
16099;SDS011;8154;50.830;12.082;2023-02-22T08:51:15;0.90;;;0.90;;
16099;SDS011;8154;50.830;12.082;2023-02-22T08:53:41;1.00;;;1.00;;
16099;SDS011;8154;50.830;12.082;2023-02-22T08:56:07;0.90;;;0.90;;
16099;SDS011;8154;50.830;12.082;2023-02-22T08:58:33;1.00;;;1.00;;
16099;SDS011;8154;50.830;12.082;2023-02-22T09:01:00;0.90;;;0.90;;
16099;SDS011;8154;50.830;12.082;2023-02-22T09:03:26;1.00;;;1.00;;
16099;SDS011;8154;50.830;12.082;2023-02-22T09:05:52;1.00;;;1.00;;
16099;SDS011;8154;50.830;12.082;2023-02-22T09:08:19;1.00;;;1.00;;
16099;SDS011;8154;50.830;12.082;2023-02-22T09:10:46;1.00;;;1.00;;
16099;SDS011;8154;50.830;12.082;2023-02-22T09:13:16;0.90;;;0.90;;
16099;SDS011;8154;50.830;12.082;2023-02-22T09:15:42;1.00;;;1.00;;
16099;SDS011;8154;50.830;12.082;2023-02-22T09:18:10;0.90;;;0.90;;
16099;SDS011;8154;50.830;12.082;2023-02-22T09:20:39;1.00;;;1.00;;
16099;SDS011;8154;50.830;12.082;2023-02-22T09:23:08;1.00;;;1.00;;
16099;SDS011;8154;50.830;12.082;2023-02-22T09:25:36;0.90;;;0.90;;
16099;SDS011;8154;50.830;12.082;2023-02-22T09:28:03;1.17;;;1.10;;
16099;SDS011;8154;50.830;12.082;2023-02-22T09:30:30;0.82;;;0.82;;
16099;SDS011;8154;50.830;12.082;2023-02-22T09:33:00;1.15;;;0.98;;
16099;SDS011;8154;50.830;12.082;2023-02-22T09:35:30;0.90;;;0.90;;
16099;SDS011;8154;50.830;12.082;2023-02-22T09:38:02;0.90;;;0.90;;
16099;SDS011;8154;50.830;12.082;2023-02-22T09:40:32;1.00;;;1.00;;
16099;SDS011;8154;50.830;12.082;2023-02-22T09:43:13;0.95;;;0.95;;
16099;SDS011;8154;50.830;12.082;2023-02-22T09:48:32;1.00;;;1.00;;
16099;SDS011;8154;50.830;12.082;2023-02-22T09:51:01;0.80;;;0.80;;
16099;SDS011;8154;50.830;12.082;2023-02-22T09:53:37;1.10;;;1.10;;
16099;SDS011;8154;50.830;12.082;2023-02-22T09:56:15;0.80;;;0.80;;
16099;SDS011;8154;50.830;12.082;2023-02-22T09:58:46;0.80;;;0.80;;
16099;SDS011;8154;50.830;12.082;2023-02-22T10:01:27;0.90;;;0.90;;
16099;SDS011;8154;50.830;12.082;2023-02-22T10:06:29;0.90;;;0.90;;
16099;SDS011;8154;50.830;12.082;2023-02-22T10:08:59;0.90;;;0.90;;
16099;SDS011;8154;50.830;12.082;2023-02-22T10:11:43;0.90;;;0.90;;
16099;SDS011;8154;50.830;12.082;2023-02-22T10:17:14;0.90;;;0.90;;
16099;SDS011;8154;50.830;12.082;2023-02-22T10:25:23;0.90;;;0.90;;
16099;SDS011;8154;50.830;12.082;2023-02-22T10:28:25;0.90;;;0.90;;
16099;SDS011;8154;50.830;12.082;2023-02-22T10:30:49;0.90;;;0.90;;
16099;SDS011;8154;50.830;12.082;2023-02-22T10:33:22;0.88;;;0.88;;
16099;SDS011;8154;50.830;12.082;2023-02-22T10:35:55;0.90;;;0.90;;
16099;SDS011;8154;50.830;12.082;2023-02-22T10:38:23;1.00;;;1.00;;
16099;SDS011;8154;50.830;12.082;2023-02-22T10:43:39;0.82;;;0.82;;
16099;SDS011;8154;50.830;12.082;2023-02-22T10:46:09;0.80;;;0.80;;
16099;SDS011;8154;50.830;12.082;2023-02-22T10:48:41;0.90;;;0.90;;
16099;SDS011;8154;50.830;12.082;2023-02-22T10:51:12;0.90;;;0.90;;
16099;SDS011;8154;50.830;12.082;2023-02-22T10:53:38;0.90;;;0.90;;
16099;SDS011;8154;50.830;12.082;2023-02-22T10:56:05;1.00;;;1.00;;
16099;SDS011;8154;50.830;12.082;2023-02-22T10:58:48;0.80;;;0.80;;
16099;SDS011;8154;50.830;12.082;2023-02-22T11:03:57;0.90;;;0.90;;
16099;SDS011;8154;50.830;12.082;2023-02-22T11:07:09;0.82;;;0.82;;
16099;SDS011;8154;50.830;12.082;2023-02-22T11:09:44;0.90;;;0.90;;
16099;SDS011;8154;50.830;12.082;2023-02-22T11:12:17;1.00;;;1.00;;
16099;SDS011;8154;50.830;12.082;2023-02-22T11:14:51;0.95;;;0.95;;
16099;SDS011;8154;50.830;12.082;2023-02-22T11:17:21;0.88;;;0.88;;
16099;SDS011;8154;50.830;12.082;2023-02-22T11:19:54;0.80;;;0.80;;
16099;SDS011;8154;50.830;12.082;2023-02-22T11:22:24;0.90;;;0.90;;
16099;SDS011;8154;50.830;12.082;2023-02-22T11:24:58;0.90;;;0.90;;
16099;SDS011;8154;50.830;12.082;2023-02-22T11:27:29;0.90;;;0.90;;
16099;SDS011;8154;50.830;12.082;2023-02-22T11:30:18;0.90;;;0.90;;
16099;SDS011;8154;50.830;12.082;2023-02-22T11:35:39;1.00;;;1.00;;
16099;SDS011;8154;50.830;12.082;2023-02-22T11:38:19;0.90;;;0.90;;
16099;SDS011;8154;50.830;12.082;2023-02-22T11:41:03;0.80;;;0.80;;
16099;SDS011;8154;50.830;12.082;2023-02-22T11:43:48;0.93;;;0.93;;
16099;SDS011;8154;50.830;12.082;2023-02-22T11:46:17;0.80;;;0.80;;
16099;SDS011;8154;50.830;12.082;2023-02-22T11:54:25;0.90;;;0.90;;
16099;SDS011;8154;50.830;12.082;2023-02-22T11:57:25;0.80;;;0.80;;
16099;SDS011;8154;50.830;12.082;2023-02-22T12:00:03;0.90;;;0.90;;
16099;SDS011;8154;50.830;12.082;2023-02-22T12:19:29;0.80;;;0.80;;
16099;SDS011;8154;50.830;12.082;2023-02-22T12:22:02;0.88;;;0.88;;
16099;SDS011;8154;50.830;12.082;2023-02-22T12:24:41;0.80;;;0.80;;
16099;SDS011;8154;50.830;12.082;2023-02-22T12:27:14;0.85;;;0.85;;
16099;SDS011;8154;50.830;12.082;2023-02-22T12:29:54;0.85;;;0.85;;
16099;SDS011;8154;50.830;12.082;2023-02-22T12:35:15;0.90;;;0.90;;
16099;SDS011;8154;50.830;12.082;2023-02-22T12:37:55;0.90;;;0.90;;
16099;SDS011;8154;50.830;12.082;2023-02-22T12:51:45;0.85;;;0.85;;
16099;SDS011;8154;50.830;12.082;2023-02-22T12:56:36;1.00;;;1.00;;
16099;SDS011;8154;50.830;12.082;2023-02-22T12:59:16;1.00;;;1.00;;
16099;SDS011;8154;50.830;12.082;2023-02-22T14:08:04;1.70;;;1.60;;
16099;SDS011;8154;50.830;12.082;2023-02-22T14:11:38;1.70;;;1.60;;
16099;SDS011;8154;50.830;12.082;2023-02-22T14:13:28;1.75;;;1.65;;
16099;SDS011;8154;50.830;12.082;2023-02-22T14:18:25;1.70;;;1.60;;
16099;SDS011;8154;50.830;12.082;2023-02-22T14:21:12;1.80;;;1.70;;
16099;SDS011;8154;50.830;12.082;2023-02-22T14:23:46;1.77;;;1.67;;
16099;SDS011;8154;50.830;12.082;2023-02-22T14:26:24;1.70;;;1.60;;
16099;SDS011;8154;50.830;12.082;2023-02-22T14:28:51;1.70;;;1.60;;
16099;SDS011;8154;50.830;12.082;2023-02-22T14:31:29;1.75;;;1.65;;
16099;SDS011;8154;50.830;12.082;2023-02-22T14:39:31;1.75;;;1.65;;
16099;SDS011;8154;50.830;12.082;2023-02-22T14:44:36;1.70;;;1.60;;
16099;SDS011;8154;50.830;12.082;2023-02-22T14:47:13;1.90;;;1.80;;
16099;SDS011;8154;50.830;12.082;2023-02-22T14:49:46;1.70;;;1.60;;
16099;SDS011;8154;50.830;12.082;2023-02-22T14:52:26;1.80;;;1.70;;
16099;SDS011;8154;50.830;12.082;2023-02-22T14:55:14;1.60;;;1.50;;
16099;SDS011;8154;50.830;12.082;2023-02-22T14:57:55;1.92;;;1.83;;
16099;SDS011;8154;50.830;12.082;2023-02-22T15:00:36;1.88;;;1.77;;
16099;SDS011;8154;50.830;12.082;2023-02-22T15:03:02;2.00;;;1.90;;
16099;SDS011;8154;50.830;12.082;2023-02-22T15:05:33;1.90;;;1.80;;
16099;SDS011;8154;50.830;12.082;2023-02-22T15:08:05;1.92;;;1.83;;
16099;SDS011;8154;50.830;12.082;2023-02-22T15:10:43;2.05;;;1.95;;
16099;SDS011;8154;50.830;12.082;2023-02-22T15:15:44;1.90;;;1.80;;
16099;SDS011;8154;50.830;12.082;2023-02-22T15:18:30;2.10;;;2.00;;
16099;SDS011;8154;50.830;12.082;2023-02-22T15:21:22;2.35;;;2.15;;
16099;SDS011;8154;50.830;12.082;2023-02-22T15:23:55;2.38;;;2.28;;
16099;SDS011;8154;50.830;12.082;2023-02-22T15:26:26;2.25;;;2.15;;
16099;SDS011;8154;50.830;12.082;2023-02-22T15:29:06;2.80;;;2.60;;
16099;SDS011;8154;50.830;12.082;2023-02-22T15:31:36;2.78;;;2.58;;
16099;SDS011;8154;50.830;12.082;2023-02-22T15:34:17;2.70;;;2.50;;
16099;SDS011;8154;50.830;12.082;2023-02-22T15:36:48;3.20;;;3.00;;
16099;SDS011;8154;50.830;12.082;2023-02-22T15:39:29;3.25;;;3.05;;
16099;SDS011;8154;50.830;12.082;2023-02-22T15:42:00;3.47;;;3.17;;
16099;SDS011;8154;50.830;12.082;2023-02-22T15:44:28;3.60;;;3.30;;
16099;SDS011;8154;50.830;12.082;2023-02-22T15:46:59;3.30;;;3.10;;
16099;SDS011;8154;50.830;12.082;2023-02-22T15:49:25;3.30;;;3.10;;
16099;SDS011;8154;50.830;12.082;2023-02-22T15:52:01;3.53;;;3.22;;
16099;SDS011;8154;50.830;12.082;2023-02-22T15:54:49;3.40;;;3.20;;
16099;SDS011;8154;50.830;12.082;2023-02-22T15:57:17;3.72;;;3.50;;
16099;SDS011;8154;50.830;12.082;2023-02-22T15:59:48;3.85;;;3.55;;
16099;SDS011;8154;50.830;12.082;2023-02-22T16:05:04;3.60;;;3.40;;
16099;SDS011;8154;50.830;12.082;2023-02-22T16:07:31;3.60;;;3.40;;
16099;SDS011;8154;50.830;12.082;2023-02-22T16:10:01;3.70;;;3.40;;
16099;SDS011;8154;50.830;12.082;2023-02-22T16:12:33;3.78;;;3.50;;
16099;SDS011;8154;50.830;12.082;2023-02-22T16:15:00;3.30;;;3.10;;
16099;SDS011;8154;50.830;12.082;2023-02-22T16:17:33;3.50;;;3.30;;
16099;SDS011;8154;50.830;12.082;2023-02-22T16:22:44;3.55;;;3.30;;
16099;SDS011;8154;50.830;12.082;2023-02-22T16:32:46;3.60;;;3.40;;
16099;SDS011;8154;50.830;12.082;2023-02-22T16:35:14;3.17;;;2.97;;
16099;SDS011;8154;50.830;12.082;2023-02-22T16:37:50;3.40;;;3.20;;
16099;SDS011;8154;50.830;12.082;2023-02-22T16:40:21;5.50;;;5.10;;
16099;SDS011;8154;50.830;12.082;2023-02-22T16:42:50;5.72;;;5.22;;
16099;SDS011;8154;50.830;12.082;2023-02-22T16:45:18;5.13;;;4.72;;
16099;SDS011;8154;50.830;12.082;2023-02-22T16:47:45;5.50;;;5.00;;
16099;SDS011;8154;50.830;12.082;2023-02-22T16:50:11;5.47;;;4.97;;
16099;SDS011;8154;50.830;12.082;2023-02-22T16:52:38;6.32;;;4.80;;
16099;SDS011;8154;50.830;12.082;2023-02-22T16:55:07;5.45;;;4.95;;
16099;SDS011;8154;50.830;12.082;2023-02-22T16:57:37;5.57;;;5.07;;
16099;SDS011;8154;50.830;12.082;2023-02-22T17:00:05;8.00;;;6.47;;
16099;SDS011;8154;50.830;12.082;2023-02-22T17:02:37;7.05;;;5.55;;
16099;SDS011;8154;50.830;12.082;2023-02-22T17:05:04;6.72;;;6.05;;
16099;SDS011;8154;50.830;12.082;2023-02-22T17:07:32;9.52;;;6.30;;
16099;SDS011;8154;50.830;12.082;2023-02-22T17:09:58;8.05;;;6.35;;
16099;SDS011;8154;50.830;12.082;2023-02-22T17:12:25;7.18;;;6.47;;
16099;SDS011;8154;50.830;12.082;2023-02-22T17:14:53;7.60;;;6.07;;
16099;SDS011;8154;50.830;12.082;2023-02-22T17:17:19;6.45;;;5.85;;
16099;SDS011;8154;50.830;12.082;2023-02-22T17:19:45;6.70;;;6.07;;
16099;SDS011;8154;50.830;12.082;2023-02-22T17:22:15;7.13;;;5.60;;
16099;SDS011;8154;50.830;12.082;2023-02-22T17:24:43;6.32;;;5.72;;
16099;SDS011;8154;50.830;12.082;2023-02-22T17:27:09;7.75;;;5.85;;
16099;SDS011;8154;50.830;12.082;2023-02-22T17:29:35;6.40;;;5.80;;
16099;SDS011;8154;50.830;12.082;2023-02-22T17:32:01;5.60;;;5.00;;
16099;SDS011;8154;50.830;12.082;2023-02-22T17:34:28;6.10;;;5.50;;
16099;SDS011;8154;50.830;12.082;2023-02-22T17:36:53;6.60;;;5.80;;
16099;SDS011;8154;50.830;12.082;2023-02-22T17:39:20;14.50;;;6.22;;
16099;SDS011;8154;50.830;12.082;2023-02-22T17:41:46;7.25;;;5.70;;
16099;SDS011;8154;50.830;12.082;2023-02-22T17:44:19;8.48;;;6.20;;
16099;SDS011;8154;50.830;12.082;2023-02-22T17:46:45;8.43;;;7.60;;
16099;SDS011;8154;50.830;12.082;2023-02-22T17:49:11;10.60;;;6.80;;
16099;SDS011;8154;50.830;12.082;2023-02-22T17:51:38;8.50;;;5.97;;
16099;SDS011;8154;50.830;12.082;2023-02-22T17:54:05;7.70;;;6.55;;
16099;SDS011;8154;50.830;12.082;2023-02-22T17:56:31;8.90;;;5.93;;
16099;SDS011;8154;50.830;12.082;2023-02-22T17:58:58;7.30;;;5.88;;
16099;SDS011;8154;50.830;12.082;2023-02-22T18:01:26;6.28;;;5.53;;
16099;SDS011;8154;50.830;12.082;2023-02-22T18:03:55;9.73;;;6.30;;
16099;SDS011;8154;50.830;12.082;2023-02-22T18:06:24;6.78;;;6.00;;
16099;SDS011;8154;50.830;12.082;2023-02-22T18:08:53;10.45;;;6.30;;
16099;SDS011;8154;50.830;12.082;2023-02-22T18:11:22;10.85;;;6.35;;
16099;SDS011;8154;50.830;12.082;2023-02-22T18:13:54;8.05;;;5.90;;
16099;SDS011;8154;50.830;12.082;2023-02-22T18:16:22;6.97;;;6.03;;
16099;SDS011;8154;50.830;12.082;2023-02-22T18:18:53;8.80;;;5.70;;
16099;SDS011;8154;50.830;12.082;2023-02-22T18:21:20;10.18;;;5.93;;
16099;SDS011;8154;50.830;12.082;2023-02-22T18:23:47;8.30;;;6.00;;
16099;SDS011;8154;50.830;12.082;2023-02-22T18:26:14;10.05;;;6.22;;
16099;SDS011;8154;50.830;12.082;2023-02-22T18:28:42;13.93;;;7.63;;
16099;SDS011;8154;50.830;12.082;2023-02-22T18:31:10;8.10;;;5.38;;
16099;SDS011;8154;50.830;12.082;2023-02-22T18:33:39;7.10;;;5.30;;
16099;SDS011;8154;50.830;12.082;2023-02-22T18:36:08;7.65;;;5.03;;
16099;SDS011;8154;50.830;12.082;2023-02-22T18:38:38;6.88;;;5.10;;
16099;SDS011;8154;50.830;12.082;2023-02-22T18:41:12;6.68;;;4.53;;
16099;SDS011;8154;50.830;12.082;2023-02-22T18:43:40;8.43;;;4.60;;
16099;SDS011;8154;50.830;12.082;2023-02-22T18:46:17;8.45;;;4.15;;
16099;SDS011;8154;50.830;12.082;2023-02-22T18:48:46;6.55;;;4.13;;
16099;SDS011;8154;50.830;12.082;2023-02-22T18:51:13;6.20;;;4.35;;
16099;SDS011;8154;50.830;12.082;2023-02-22T18:53:42;6.03;;;4.05;;
16099;SDS011;8154;50.830;12.082;2023-02-22T18:56:13;5.95;;;4.10;;
16099;SDS011;8154;50.830;12.082;2023-02-22T18:58:44;5.90;;;3.90;;
16099;SDS011;8154;50.830;12.082;2023-02-22T19:01:14;5.22;;;3.90;;
16099;SDS011;8154;50.830;12.082;2023-02-22T19:03:42;4.72;;;3.78;;
16099;SDS011;8154;50.830;12.082;2023-02-22T19:06:08;5.82;;;3.85;;
16099;SDS011;8154;50.830;12.082;2023-02-22T19:08:35;4.57;;;3.78;;
16099;SDS011;8154;50.830;12.082;2023-02-22T19:11:05;4.65;;;3.78;;
16099;SDS011;8154;50.830;12.082;2023-02-22T19:13:34;4.88;;;4.10;;
16099;SDS011;8154;50.830;12.082;2023-02-22T19:16:02;3.85;;;3.45;;
16099;SDS011;8154;50.830;12.082;2023-02-22T19:18:30;4.43;;;3.70;;
16099;SDS011;8154;50.830;12.082;2023-02-22T19:20:57;5.10;;;3.78;;
16099;SDS011;8154;50.830;12.082;2023-02-22T19:23:24;4.70;;;3.20;;
16099;SDS011;8154;50.830;12.082;2023-02-22T19:25:51;3.97;;;3.53;;
16099;SDS011;8154;50.830;12.082;2023-02-22T19:28:17;8.05;;;3.13;;
16099;SDS011;8154;50.830;12.082;2023-02-22T19:30:44;5.88;;;3.60;;
16099;SDS011;8154;50.830;12.082;2023-02-22T22:43:49;3.63;;;2.60;;
16099;SDS011;8154;50.830;12.082;2023-02-22T22:46:18;4.80;;;2.65;;
16099;SDS011;8154;50.830;12.082;2023-02-22T22:48:44;4.03;;;2.70;;
16099;SDS011;8154;50.830;12.082;2023-02-22T22:51:13;3.00;;;2.70;;
16099;SDS011;8154;50.830;12.082;2023-02-22T22:53:41;4.93;;;2.70;;
16099;SDS011;8154;50.830;12.082;2023-02-22T22:56:19;3.72;;;2.65;;
16099;SDS011;8154;50.830;12.082;2023-02-22T22:59:00;3.53;;;2.70;;
16099;SDS011;8154;50.830;12.082;2023-02-22T23:01:35;4.30;;;2.92;;
16099;SDS011;8154;50.830;12.082;2023-02-22T23:04:10;2.60;;;2.40;;
16099;SDS011;8154;50.830;12.082;2023-02-22T23:06:39;2.80;;;2.60;;
16099;SDS011;8154;50.830;12.082;2023-02-22T23:09:15;6.22;;;2.70;;
16099;SDS011;8154;50.830;12.082;2023-02-22T23:11:44;2.88;;;2.67;;
16099;SDS011;8154;50.830;12.082;2023-02-22T23:14:12;2.60;;;2.40;;
16099;SDS011;8154;50.830;12.082;2023-02-22T23:16:44;2.95;;;2.65;;
16099;SDS011;8154;50.830;12.082;2023-02-22T23:19:11;2.90;;;2.60;;
16099;SDS011;8154;50.830;12.082;2023-02-22T23:21:37;2.70;;;2.50;;
16099;SDS011;8154;50.830;12.082;2023-02-22T23:24:04;3.15;;;2.35;;
16099;SDS011;8154;50.830;12.082;2023-02-22T23:26:31;2.90;;;2.70;;
16099;SDS011;8154;50.830;12.082;2023-02-22T23:28:59;2.63;;;2.40;;
16099;SDS011;8154;50.830;12.082;2023-02-22T23:31:26;3.35;;;2.60;;
16099;SDS011;8154;50.830;12.082;2023-02-22T23:33:57;3.53;;;2.60;;
16099;SDS011;8154;50.830;12.082;2023-02-22T23:36:24;3.70;;;2.50;;
16099;SDS011;8154;50.830;12.082;2023-02-22T23:38:50;3.25;;;2.40;;
16099;SDS011;8154;50.830;12.082;2023-02-22T23:41:17;3.17;;;2.50;;
16099;SDS011;8154;50.830;12.082;2023-02-22T23:43:43;2.97;;;2.55;;
